Terminal Aerodrome Forecast
Issued by NWS

Home | Current Version | Previous Version | Text Only | Print | Product List | Glossary On
Versions: 1 2 3 4 5 6 7 8 9 10 11 12 13 14 15 16 17 18 19 20
000
FTUS42 KMLB 201700
TAFFPR
TAF
KFPR 201731Z 2018/2118 32008KT P6SM OVC020
     FM210000 34008KT P6SM BKN020 OVC030
     FM210600 36009KT P6SM SCT012 BKN035
      TEMPO 2110/2114 BKN012
     FM211400 01007KT P6SM SCT015 SCT035=

USA.gov is the U.S. government's official web portal to all federal, state and local government web resources and services.